Flight Track Log - Related Links

Times and Time Zones

All times are in EDT time to prevent confusion due to time zone crossing. See the UPS2292 flight status page for this flight to view local times or setup timezone preferences in your user account.

Time Position Orientation Groundspeed Altitude Reporting Facility
EDT Latitude Longitude Course Direction KTS MPH feet Rate Location/Type
Thu 01:41:22 PM 32.8590 -97.0300 180° South 199 229 2,800  Level FlightAware ADS-B
Thu 01:41:43 PM 32.8370 -97.0300 180° South 240 276 3,400 2,604 Climbing FlightAware ADS-B
Thu 01:42:15 PM 32.7990 -97.0310 181° South 264 304 5,100 3,551 Climbing FlightAware ADS-B
Thu 01:42:32 PM 32.7770 -97.0310 180° South 272 313 6,300 4,000 Climbing FlightAware ADS-B
Thu 01:42:57 PM 32.7470 -97.0190 161° South 278 320 7,900 3,892 Climbing FlightAware ADS-B
Thu 01:43:09 PM 32.7370 -97.0040 128° Southeast 280 322 8,700 2,727 Climbing FlightAware ADS-B
Thu 01:43:41 PM 32.7200 -96.9570 113° Southeast 301 346 9,900 1,075 Climbing FlightAware ADS-B
Thu 01:44:16 PM 32.7270 -96.9000 82° East 342 394 9,900  Level FlightAware ADS-B
Thu 01:44:52 PM 32.7420 -96.8350 75° East 368 423 9,900 100 Level FlightAware ADS-B
Thu 01:45:16 PM 32.7550 -96.7840 73° East 375 432 10,000 2,034 Climbing FlightAware ADS-B
Thu 01:45:51 PM 32.7720 -96.7130 74° East 382 440 11,900 3,300 Climbing FlightAware ADS-B
Thu 01:46:36 PM 32.7950 -96.6200 74° East 392 451 14,400 3,000 Climbing FlightAware ADS-B
Thu 01:47:11 PM 32.8130 -96.5490 73° East 409 471 15,900 2,625 Climbing FlightAware ADS-B
Thu 01:47:56 PM 32.8370 -96.4470 74° East 427 491 17,900 2,543 Climbing FlightAware ADS-B
Thu 01:48:43 PM 32.8630 -96.3400 74° East 439 505 19,800 2,360 Climbing FlightAware ADS-B
Thu 01:49:25 PM 32.8680 -96.2350 87° East 450 518 21,400 2,195 Climbing FlightAware ADS-B
Thu 01:50:05 PM 32.8690 -96.1370 89° East 465 535 22,800 1,263 Climbing FlightAware ADS-B
Thu 01:50:41 PM 32.8710 -96.0460 88° East 480 552 23,000 324 Climbing FlightAware ADS-B
Thu 01:51:19 PM 32.8730 -95.9430 89° East 477 549 23,200 1,184 Climbing FlightAware ADS-B
Thu 01:51:57 PM 32.8740 -95.8430 89° East 482 555 24,500 2,077 Climbing FlightAware ADS-B
Thu 01:52:37 PM 32.8760 -95.7360 89° East 488 562 25,900 2,366 Climbing FlightAware ADS-B
Thu 01:53:08 PM 32.8772 -95.6535 89° East 482 555 27,300 2,471 Climbing FlightAware ADS-B
Thu 01:54:02 PM 32.8790 -95.5140 89° East 479 551 29,400 2,388 Climbing FlightAware ADS-B
Thu 01:54:46 PM 32.8813 -95.3938 89° East 471 542 31,200 2,027 Climbing FlightAware ADS-B
Thu 01:55:16 PM 32.8884 -95.3168 84° East 471 542 31,900 1,537 Climbing FlightAware ADS-B
Thu 01:56:08 PM 32.9088 -95.1870 79° East 472 543 33,300 1,468 Climbing FlightAware ADS-B
Thu 01:56:50 PM 32.9252 -95.0804 80° East 472 543 34,200 1,185 Climbing FlightAware ADS-B
Thu 01:57:29 PM 32.9400 -94.9800 80° East 476 548 34,900 632 Climbing FlightAware ADS-B
Thu 01:58:06 PM 32.9554 -94.8836 79° East 485 558 35,000 90 Climbing FlightAware ADS-B
Thu 01:58:36 PM 32.9674 -94.8024 80° East 484 557 35,000  Level FlightAware ADS-B
Thu 01:59:08 PM 32.9799 -94.7188 80° East 481 554 35,000  Level FlightAware ADS-B
Thu 01:59:39 PM 32.9916 -94.6407 80° East 479 551 35,000  Level FlightAware ADS-B
Thu 02:00:22 PM 33.0060 -94.5620 78° East 483 556 35,000  Level FlightAware ADS-B
Thu 02:01:00 PM 33.0200 -94.4780 79° East 483 556 35,000  Level FlightAware ADS-B
Thu 02:02:04 PM 33.0460 -94.2660 82° East 473 544 35,000  Level FlightAware ADS-B
Thu 02:02:41 PM 33.0580 -94.1850 80° East 473 544 35,000  Level FlightAware ADS-B
Thu 02:03:53 PM 33.0860 -93.9890 80° East 473 544 35,000  Level FlightAware ADS-B
Thu 02:04:29 PM 33.1000 -93.8911 80° East 474 545 35,000  Level FlightAware ADS-B
Thu 02:04:59 PM 33.1105 -93.8164 80° East 475 547 35,000  Level FlightAware ADS-B
Thu 02:06:01 PM 33.0926 -93.6510 97° East 478 550 35,000  Level FlightAware ADS-B
Thu 02:06:38 PM 33.0749 -93.5537 102° East 478 550 35,000  Level FlightAware ADS-B
Thu 02:06:45 PM 33.0720 -93.5380 102° East 488 562 35,000  Level FlightAware ADS-B
Thu 02:07:35 PM 33.0520 -93.4260 102° East 487 560 35,000  Level FlightAware ADS-B
Thu 02:08:11 PM 33.0380 -93.3450 102° East 487 560 35,000  Level FlightAware ADS-B
Thu 02:09:02 PM 33.0078 -93.1795 102° East 486 559 35,000  Level FlightAware ADS-B
Thu 02:09:34 PM 32.9925 -93.0935 102° East 484 557 35,000  Level FlightAware ADS-B
Thu 02:10:26 PM 32.9840 -93.0440 102° East 487 560 35,000  Level FlightAware ADS-B
Thu 02:11:01 PM 32.9700 -92.9650 102° East 487 560 35,000  Level FlightAware ADS-B
Thu 02:12:03 PM 32.9250 -92.7139 102° East 484 557 35,000  Level Fort Worth Center
Thu 02:13:02 PM 32.8961 -92.5569 102° East 484 557 35,000  Level Fort Worth Center
Thu 02:14:03 PM 32.8672 -92.4053 103° East 484 557 35,000  Level Fort Worth Center
Thu 02:15:03 PM 32.8381 -92.2511 103° East 484 557 35,000  Level Fort Worth Center
Thu 02:17:32 PM 32.7631 -91.8692 103° East 471 542 35,000  Level Memphis Center
Thu 02:18:33 PM 32.7314 -91.7156 104° East 471 542 35,000  Level Memphis Center
Thu 02:19:32 PM 32.7039 -91.5597 102° East 477 549 35,000  Level Memphis Center
Thu 02:20:32 PM 32.6697 -91.4061 105° East 471 542 35,000  Level Memphis Center
Thu 02:21:32 PM 32.6436 -91.2528 101° East 471 542 35,000  Level Memphis Center
Thu 02:22:32 PM 32.6092 -91.0972 105° East 471 542 35,000  Level Memphis Center
Thu 02:23:32 PM 32.5828 -90.9564 103° East 478 550 35,000  Level Memphis Center
Thu 02:24:32 PM 32.5522 -90.8033 103° East 478 550 35,000  Level Memphis Center
Thu 02:25:32 PM 32.5192 -90.6456 104° East 478 550 35,000  Level Memphis Center
Thu 02:26:32 PM 32.4881 -90.4928 104° East 478 550 35,000  Level Memphis Center
Thu 02:27:32 PM 32.4569 -90.3353 103° East 483 556 35,000  Level Memphis Center
Thu 02:28:32 PM 32.4233 -90.1775 104° East 483 556 35,000  Level Memphis Center
Thu 02:33:49 PM 32.2480 -89.3390 104° East 491 565 35,000  Level FlightAware ADS-B
Thu 02:34:27 PM 32.2260 -89.2380 104° East 493 567 35,000  Level FlightAware ADS-B
Thu 02:35:03 PM 32.2050 -89.1410 104° East 493 567 35,000  Level FlightAware ADS-B
Thu 02:35:49 PM 32.1810 -89.0290 104° East 493 567 35,000  Level FlightAware ADS-B
Thu 02:36:31 PM 32.1550 -88.9120 105° East 492 566 35,000  Level FlightAware ADS-B
Thu 02:37:07 PM 32.1340 -88.8160 104° East 491 565 35,000  Level FlightAware ADS-B
Thu 02:37:51 PM 32.1100 -88.7080 105° East 489 563 35,000  Level FlightAware ADS-B
Thu 02:38:37 PM 32.0830 -88.5860 105° East 488 562 35,000  Level FlightAware ADS-B
Thu 02:39:15 PM 32.0620 -88.4920 105° East 487 560 35,000  Level FlightAware ADS-B
Thu 02:40:01 PM 32.0410 -88.3940 104° East 487 560 35,000  Level FlightAware ADS-B
Thu 02:40:43 PM 32.0110 -88.2630 105° East 488 562 35,000  Level FlightAware ADS-B
Thu 02:41:27 PM 31.9860 -88.1520 105° East 489 563 35,000  Level FlightAware ADS-B
Thu 02:42:07 PM 31.9630 -88.0490 105° East 488 562 35,000  Level FlightAware ADS-B
Thu 02:42:51 PM 31.9390 -87.9420 105° East 486 559 35,000  Level FlightAware ADS-B
Thu 02:43:32 PM 31.9130 -87.8300 105° East 485 558 35,000  Level FlightAware ADS-B
Thu 02:44:09 PM 31.8920 -87.7350 105° East 486 559 35,000  Level FlightAware ADS-B
Thu 02:44:55 PM 31.8650 -87.6180 105° East 487 560 35,000  Level FlightAware ADS-B
Thu 02:45:39 PM 31.8390 -87.5050 105° East 486 559 35,000  Level FlightAware ADS-B
Thu 02:46:17 PM 31.8160 -87.4090 106° East 483 556 35,000  Level FlightAware ADS-B
Thu 02:47:03 PM 31.7890 -87.2920 105° East 481 554 35,000  Level FlightAware ADS-B
Thu 02:48:24 PM 31.7490 -87.1220 105° East 477 549 35,000  Level FlightAware ADS-B
Thu 02:49:07 PM 31.7170 -86.9850 105° East 475 547 35,000  Level FlightAware ADS-B
Thu 02:49:51 PM 31.6900 -86.8700 105° East 476 548 35,000  Level FlightAware ADS-B
Thu 02:50:34 PM 31.6660 -86.7660 105° East 470 541 35,000  Level FlightAware ADS-B
Thu 02:51:13 PM 31.6430 -86.6710 106° East 468 539 35,000  Level FlightAware ADS-B
Thu 02:51:56 PM 31.6240 -86.5900 105° East 472 543 35,000  Level FlightAware ADS-B
Thu 02:52:51 PM 31.5880 -86.4410 106° East 475 547 35,000  Level FlightAware ADS-B
Thu 02:53:27 PM 31.5630 -86.3400 106° East 474 545 35,000  Level FlightAware ADS-B
Thu 02:54:07 PM 31.5390 -86.2410 106° East 471 542 35,000  Level FlightAware ADS-B
Thu 02:54:49 PM 31.5140 -86.1380 106° East 472 543 35,000  Level FlightAware ADS-B
Thu 02:55:33 PM 31.4880 -86.0300 106° East 473 544 35,000  Level FlightAware ADS-B
Thu 02:56:15 PM 31.4630 -85.9290 106° East 474 545 35,000  Level FlightAware ADS-B
Thu 02:56:55 PM 31.4380 -85.8280 106° East 470 541 35,000  Level FlightAware ADS-B
Thu 02:57:35 PM 31.4150 -85.7330 106° East 468 539 35,000  Level FlightAware ADS-B
Thu 02:58:22 PM 31.3910 -85.6350 106° East 468 539 35,000  Level FlightAware ADS-B
Thu 02:58:58 PM 31.3730 -85.5610 106° East 468 539 35,000  Level FlightAware ADS-B
Thu 02:59:46 PM 31.3480 -85.4610 106° East 468 539 35,000  Level FlightAware ADS-B
Thu 03:00:22 PM 31.3300 -85.3870 106° East 468 539 35,000  Level FlightAware ADS-B
Thu 03:01:11 PM 31.3050 -85.2850 106° East 468 539 35,000  Level FlightAware ADS-B
Thu 03:01:48 PM 31.2860 -85.2090 106° East 468 539 35,000  Level FlightAware ADS-B
Thu 03:02:29 PM 31.2660 -85.1240 105° East 468 539 35,000  Level FlightAware ADS-B
Thu 03:03:29 PM 31.2350 -85.0000 106° East 468 539 35,000  Level FlightAware ADS-B
Thu 03:04:08 PM 31.2150 -84.9190 106° East 468 539 35,000  Level FlightAware ADS-B
Thu 03:04:56 PM 31.1910 -84.8200 106° East 468 539 35,000  Level FlightAware ADS-B
Thu 03:05:30 PM 31.1740 -84.7490 106° East 468 539 35,000  Level FlightAware ADS-B
Thu 03:06:19 PM 31.1490 -84.6480 106° East 468 539 35,000  Level FlightAware ADS-B
Thu 03:06:56 PM 31.1300 -84.5720 106° East 468 539 35,000 -2,667 Level FlightAware ADS-B
Thu 03:07:49 PM 30.8670 -84.2780 136° Southeast 486 559 31,000 -2,872 Descending FlightAware ADS-B
Thu 03:08:30 PM 30.8220 -84.1840 119° Southeast 489 563 30,500 -847 Descending FlightAware ADS-B
Thu 03:09:14 PM 30.7750 -84.0910 120° Southeast 492 566 29,800 -987 Descending FlightAware ADS-B
Thu 03:09:49 PM 30.7300 -84.0040 121° Southeast 497 572 29,200 -692 Descending FlightAware ADS-B
Thu 03:10:32 PM 30.6860 -83.9140 120° Southeast 497 572 28,900 -1,047 Descending FlightAware ADS-B
Thu 03:11:15 PM 30.6310 -83.8060 121° Southeast 503 579 27,700 -934 Descending FlightAware ADS-B
Thu 03:12:34 PM 30.5430 -83.6340 121° Southeast 498 573 27,000 -336 Descending FlightAware ADS-B
Thu 03:13:20 PM 30.4950 -83.5380 120° Southeast 493 567 27,000  Level FlightAware ADS-B
Thu 03:14:00 PM 30.4420 -83.4350 121° Southeast 493 567 27,000  Level FlightAware ADS-B
Thu 03:14:37 PM 30.4070 -83.3630 119° Southeast 493 567 27,000  Level FlightAware ADS-B
Thu 03:15:25 PM 30.3620 -83.2680 119° Southeast 493 567 27,000  Level FlightAware ADS-B
Thu 03:15:59 PM 30.3300 -83.2010 119° Southeast 493 567 27,000  Level FlightAware ADS-B
Thu 03:16:48 PM 30.2840 -83.1050 119° Southeast 493 567 27,000  Level FlightAware ADS-B
Thu 03:17:25 PM 30.2490 -83.0330 119° Southeast 493 567 27,000 -113 Level FlightAware ADS-B
Thu 03:18:34 PM 30.1411 -82.8014 119° Southeast 490 564 26,800 -313 Descending Jacksonville Center
Thu 03:23:49 PM 29.6060 -82.2770 119° Southeast 473 544 25,000 -303 Descending FlightAware ADS-B
Thu 03:24:30 PM 29.5360 -82.2420 156° South 473 544 25,000  Level FlightAware ADS-B
Thu 03:25:19 PM 29.4530 -82.1990 156° South 473 544 25,000  Level FlightAware ADS-B
Thu 03:25:55 PM 29.3920 -82.1680 156° South 473 544 25,000  Level FlightAware ADS-B
Thu 03:26:43 PM 29.3100 -82.1260 156° South 473 544 25,000  Level FlightAware ADS-B
Thu 03:27:19 PM 29.2490 -82.0950 156° South 473 544 25,000 -8,022 Level FlightAware ADS-B
Thu 03:28:12 PM 29.1500 -81.9500 156° South 408 470 13,100 -8,084 Descending Orlando TRACON
Thu 03:28:54 PM 29.0833 -81.9000 147° Southeast 368 423 12,200 -878 Descending Orlando TRACON
Thu 03:29:34 PM 29.0328 -81.8594 145° Southeast 393 452 11,900 -180 Descending Jacksonville Center
Thu 03:30:34 PM 28.9717 -81.8008 140° Southeast 340 391 11,900 -400 Level Jacksonville Center
Thu 03:31:34 PM 28.9356 -81.7231 118° Southeast 291 335 11,100 -1,050 Descending Jacksonville Center
Thu 03:32:34 PM 28.8994 -81.6475 119° Southeast 280 322 9,800 -1,100 Descending Jacksonville Center
Thu 03:33:34 PM 28.8631 -81.5719 119° Southeast 274 315 8,900 -500 Descending Jacksonville Center
Thu 03:34:34 PM 28.8164 -81.5064 129° Southeast 269 310 8,800 -1,050 Descending Jacksonville Center
Thu 03:35:34 PM 28.7761 -81.4333 122° Southeast 269 310 6,800 -2,000 Descending Jacksonville Center
Thu 03:36:34 PM 28.7131 -81.4036 158° South 246 283 4,800 -1,850 Descending Jacksonville Center
Thu 03:37:34 PM 28.6503 -81.3786 161° South 241 277 3,100 -936 Descending Jacksonville Center
Thu 03:38:55 PM 28.5833 -81.3500 159° South 177 204 2,600 -298 Descending Orlando TRACON
Thu 03:39:55 PM 28.5500 -81.3167 139° Southeast 145 167 2,400 -650 Descending Orlando TRACON
Thu 03:40:55 PM 28.5000 -81.3167 180° South 129 148 1,300 -850 Descending Orlando TRACON
Thu 03:41:55 PM 28.4667 -81.3167 180° South 133 153 700 -600 Descending Orlando TRACON
Thu 03:43:00 PM 28.4294 -81.3090 180° South  Level Estimated
Thu 03:50:00 PM 28.4294 -81.3090 24° Northeast  Level Estimated
Thu 03:51:00 PM 28.4294 -81.3090 24° Northeast  Level Estimated
Thu 03:52:00 PM 28.4294 -81.3090 24° Northeast  Level Estimated
Thu 03:53:00 PM 28.4294 -81.3090 24° Northeast  Level Estimated

Login

Don't have an account? Register now (free) for customized features, flight alerts, and more!